sensor_id;sensor_type;location;lat;lon;timestamp;pressure;altitude;pressure_sealevel;temperature;humidity
73974;BME280;62336;-26.094;27.994;2023-03-31T00:00:08;84843.46;;;28.97;21.32
73974;BME280;62336;-26.094;27.994;2023-03-31T00:02:33;84847.89;;;28.68;21.39
73974;BME280;62336;-26.094;27.994;2023-03-31T00:04:59;84848.31;;;28.67;21.75
73974;BME280;62336;-26.094;27.994;2023-03-31T00:07:24;84844.43;;;28.57;21.29
73974;BME280;62336;-26.094;27.994;2023-03-31T00:09:50;84838.30;;;28.82;21.22
73974;BME280;62336;-26.094;27.994;2023-03-31T00:12:16;84837.46;;;28.71;21.16
73974;BME280;62336;-26.094;27.994;2023-03-31T00:14:41;84838.33;;;28.48;21.10
73974;BME280;62336;-26.094;27.994;2023-03-31T00:17:07;84835.23;;;28.74;20.95
73974;BME280;62336;-26.094;27.994;2023-03-31T00:19:32;84832.93;;;28.87;20.95
73974;BME280;62336;-26.094;27.994;2023-03-31T00:21:58;84836.00;;;29.17;20.78
73974;BME280;62336;-26.094;27.994;2023-03-31T00:24:23;84840.45;;;29.02;20.73
73974;BME280;62336;-26.094;27.994;2023-03-31T00:26:49;84844.97;;;29.04;20.73
73974;BME280;62336;-26.094;27.994;2023-03-31T00:29:14;84854.24;;;29.22;21.04
73974;BME280;62336;-26.094;27.994;2023-03-31T00:31:40;84860.03;;;29.13;21.28
73974;BME280;62336;-26.094;27.994;2023-03-31T00:34:10;84858.32;;;29.25;20.79
73974;BME280;62336;-26.094;27.994;2023-03-31T00:36:30;84866.50;;;29.69;20.48
73974;BME280;62336;-26.094;27.994;2023-03-31T00:38:57;84871.92;;;29.78;20.42
73974;BME280;62336;-26.094;27.994;2023-03-31T00:41:22;84868.04;;;29.64;20.29
73974;BME280;62336;-26.094;27.994;2023-03-31T00:44:00;84867.49;;;29.73;20.12
73974;BME280;62336;-26.094;27.994;2023-03-31T00:46:16;84867.92;;;29.68;20.36
73974;BME280;62336;-26.094;27.994;2023-03-31T00:48:37;84871.09;;;29.89;20.24
73974;BME280;62336;-26.094;27.994;2023-03-31T00:51:05;84873.31;;;29.76;20.65
73974;BME280;62336;-26.094;27.994;2023-03-31T00:53:32;84876.46;;;29.47;20.82
73974;BME280;62336;-26.094;27.994;2023-03-31T00:55:56;84877.08;;;29.28;20.80
73974;BME280;62336;-26.094;27.994;2023-03-31T00:58:20;84876.79;;;28.82;20.98
73974;BME280;62336;-26.094;27.994;2023-03-31T01:00:44;84877.32;;;29.27;21.12
73974;BME280;62336;-26.094;27.994;2023-03-31T01:03:09;84877.51;;;29.27;20.89
73974;BME280;62336;-26.094;27.994;2023-03-31T01:05:38;84875.73;;;29.68;20.27
73974;BME280;62336;-26.094;27.994;2023-03-31T01:08:02;84869.48;;;29.64;20.70
73974;BME280;62336;-26.094;27.994;2023-03-31T01:10:26;84867.95;;;29.80;20.04
73974;BME280;62336;-26.094;27.994;2023-03-31T01:12:53;84866.64;;;29.81;19.58
73974;BME280;62336;-26.094;27.994;2023-03-31T01:15:17;84873.50;;;29.73;19.70
73974;BME280;62336;-26.094;27.994;2023-03-31T01:17:42;84876.99;;;30.11;19.50
73974;BME280;62336;-26.094;27.994;2023-03-31T01:20:15;84869.66;;;30.00;19.33
73974;BME280;62336;-26.094;27.994;2023-03-31T01:22:44;84861.56;;;29.71;19.60
73974;BME280;62336;-26.094;27.994;2023-03-31T01:30:01;84851.63;;;29.93;19.45
73974;BME280;62336;-26.094;27.994;2023-03-31T01:32:30;84842.09;;;29.55;19.62
73974;BME280;62336;-26.094;27.994;2023-03-31T01:34:51;84840.30;;;29.89;19.58
73974;BME280;62336;-26.094;27.994;2023-03-31T01:41:59;84834.66;;;29.48;19.71
73974;BME280;62336;-26.094;27.994;2023-03-31T01:44:23;84835.44;;;29.33;19.98
73974;BME280;62336;-26.094;27.994;2023-03-31T01:46:49;84836.23;;;29.55;19.91
73974;BME280;62336;-26.094;27.994;2023-03-31T01:49:17;84838.98;;;29.15;20.31
73974;BME280;62336;-26.094;27.994;2023-03-31T01:51:42;84838.00;;;29.43;20.13
73974;BME280;62336;-26.094;27.994;2023-03-31T01:54:05;84838.14;;;29.47;20.24
73974;BME280;62336;-26.094;27.994;2023-03-31T01:56:31;84840.09;;;28.85;20.36
73974;BME280;62336;-26.094;27.994;2023-03-31T01:58:55;84840.08;;;29.33;20.29
73974;BME280;62336;-26.094;27.994;2023-03-31T02:01:20;84835.42;;;28.78;20.28
73974;BME280;62336;-26.094;27.994;2023-03-31T02:03:47;84832.41;;;29.15;20.49
73974;BME280;62336;-26.094;27.994;2023-03-31T02:06:10;84838.85;;;29.23;20.62
73974;BME280;62336;-26.094;27.994;2023-03-31T02:08:37;84848.51;;;29.40;20.45
73974;BME280;62336;-26.094;27.994;2023-03-31T02:11:00;84857.38;;;28.87;20.82
73974;BME280;62336;-26.094;27.994;2023-03-31T02:13:27;84865.28;;;28.97;20.65
73974;BME280;62336;-26.094;27.994;2023-03-31T02:15:52;84864.89;;;28.50;20.90
73974;BME280;62336;-26.094;27.994;2023-03-31T02:18:17;84859.94;;;28.53;21.15
73974;BME280;62336;-26.094;27.994;2023-03-31T02:20:42;84859.40;;;28.75;21.26
73974;BME280;62336;-26.094;27.994;2023-03-31T02:23:08;84859.56;;;28.76;20.96
73974;BME280;62336;-26.094;27.994;2023-03-31T02:25:37;84862.41;;;28.87;21.03
73974;BME280;62336;-26.094;27.994;2023-03-31T02:28:01;84863.34;;;28.78;21.11
73974;BME280;62336;-26.094;27.994;2023-03-31T02:30:26;84861.86;;;28.63;21.08
73974;BME280;62336;-26.094;27.994;2023-03-31T02:32:49;84863.94;;;28.64;21.33
73974;BME280;62336;-26.094;27.994;2023-03-31T02:35:16;84865.40;;;28.77;21.17
73974;BME280;62336;-26.094;27.994;2023-03-31T02:37:40;84866.09;;;28.81;21.33
73974;BME280;62336;-26.094;27.994;2023-03-31T02:40:07;84870.99;;;28.70;21.52
73974;BME280;62336;-26.094;27.994;2023-03-31T02:42:31;84872.18;;;28.75;21.47
73974;BME280;62336;-26.094;27.994;2023-03-31T02:45:01;84872.42;;;28.83;21.60
73974;BME280;62336;-26.094;27.994;2023-03-31T02:47:22;84874.59;;;28.81;21.78
73974;BME280;62336;-26.094;27.994;2023-03-31T02:49:50;84873.92;;;28.49;21.93
73974;BME280;62336;-26.094;27.994;2023-03-31T02:57:19;84852.64;;;28.90;22.05
73974;BME280;62336;-26.094;27.994;2023-03-31T02:59:36;84850.88;;;29.05;22.17
73974;BME280;62336;-26.094;27.994;2023-03-31T03:02:06;84852.93;;;29.11;22.07
73974;BME280;62336;-26.094;27.994;2023-03-31T03:04:37;84858.18;;;29.00;22.23
73974;BME280;62336;-26.094;27.994;2023-03-31T03:06:51;84861.24;;;29.23;22.14
73974;BME280;62336;-26.094;27.994;2023-03-31T03:09:25;84869.23;;;28.63;22.56
73974;BME280;62336;-26.094;27.994;2023-03-31T03:11:45;84867.76;;;29.13;22.44
73974;BME280;62336;-26.094;27.994;2023-03-31T03:14:06;84869.18;;;29.12;22.60
73974;BME280;62336;-26.094;27.994;2023-03-31T03:16:31;84865.51;;;28.60;22.70
73974;BME280;62336;-26.094;27.994;2023-03-31T03:18:57;84865.77;;;28.81;22.81
73974;BME280;62336;-26.094;27.994;2023-03-31T03:21:19;84861.56;;;29.14;22.80
73974;BME280;62336;-26.094;27.994;2023-03-31T03:23:44;84863.13;;;29.29;22.82
73974;BME280;62336;-26.094;27.994;2023-03-31T03:26:09;84865.29;;;29.08;22.79
73974;BME280;62336;-26.094;27.994;2023-03-31T03:28:34;84871.47;;;29.04;22.64
73974;BME280;62336;-26.094;27.994;2023-03-31T03:31:00;84878.47;;;29.29;22.82
73974;BME280;62336;-26.094;27.994;2023-03-31T03:33:24;84873.11;;;29.12;22.79
73974;BME280;62336;-26.094;27.994;2023-03-31T03:35:50;84868.60;;;29.00;23.07
73974;BME280;62336;-26.094;27.994;2023-03-31T03:38:15;84871.19;;;28.88;23.15
73974;BME280;62336;-26.094;27.994;2023-03-31T03:40:41;84885.62;;;29.08;22.97
73974;BME280;62336;-26.094;27.994;2023-03-31T03:43:07;84896.92;;;29.11;23.11
73974;BME280;62336;-26.094;27.994;2023-03-31T03:45:32;84906.20;;;29.15;23.11
73974;BME280;62336;-26.094;27.994;2023-03-31T03:47:58;84902.07;;;29.18;23.12
73974;BME280;62336;-26.094;27.994;2023-03-31T03:50:23;84895.14;;;29.19;23.20
73974;BME280;62336;-26.094;27.994;2023-03-31T03:52:49;84889.73;;;29.37;23.08
73974;BME280;62336;-26.094;27.994;2023-03-31T03:55:14;84892.34;;;29.18;23.16
73974;BME280;62336;-26.094;27.994;2023-03-31T03:57:39;84889.28;;;29.32;23.05
73974;BME280;62336;-26.094;27.994;2023-03-31T04:00:06;84891.08;;;29.11;23.21
73974;BME280;62336;-26.094;27.994;2023-03-31T04:02:30;84895.54;;;29.13;23.37
73974;BME280;62336;-26.094;27.994;2023-03-31T04:04:56;84899.50;;;28.70;23.65
73974;BME280;62336;-26.094;27.994;2023-03-31T04:07:21;84907.19;;;28.80;23.85
73974;BME280;62336;-26.094;27.994;2023-03-31T04:09:47;84918.98;;;28.80;23.69
73974;BME280;62336;-26.094;27.994;2023-03-31T04:12:13;84927.48;;;28.95;23.73
73974;BME280;62336;-26.094;27.994;2023-03-31T04:14:38;84927.04;;;28.74;23.94
73974;BME280;62336;-26.094;27.994;2023-03-31T04:17:03;84914.36;;;28.91;23.97
73974;BME280;62336;-26.094;27.994;2023-03-31T04:19:29;84901.56;;;29.51;23.55
73974;BME280;62336;-26.094;27.994;2023-03-31T04:21:54;84885.28;;;29.44;23.89
73974;BME280;62336;-26.094;27.994;2023-03-31T04:24:20;84881.38;;;29.27;24.19
73974;BME280;62336;-26.094;27.994;2023-03-31T04:26:45;84889.91;;;29.75;24.02
73974;BME280;62336;-26.094;27.994;2023-03-31T04:29:12;84892.46;;;29.91;24.01
73974;BME280;62336;-26.094;27.994;2023-03-31T04:31:35;84891.18;;;30.25;23.89
73974;BME280;62336;-26.094;27.994;2023-03-31T04:34:01;84870.13;;;29.94;24.36
73974;BME280;62336;-26.094;27.994;2023-03-31T04:36:27;84849.40;;;29.80;24.77
73974;BME280;62336;-26.094;27.994;2023-03-31T04:38:52;84847.20;;;29.78;25.31
73974;BME280;62336;-26.094;27.994;2023-03-31T04:41:18;84836.69;;;29.64;25.45
73974;BME280;62336;-26.094;27.994;2023-03-31T04:43:43;84851.78;;;29.54;25.55
73974;BME280;62336;-26.094;27.994;2023-03-31T04:46:09;84875.34;;;29.64;25.51
73974;BME280;62336;-26.094;27.994;2023-03-31T04:48:34;84895.22;;;29.38;25.89
73974;BME280;62336;-26.094;27.994;2023-03-31T04:51:00;84889.53;;;29.14;26.28
73974;BME280;62336;-26.094;27.994;2023-03-31T04:53:25;84883.14;;;29.25;25.96
73974;BME280;62336;-26.094;27.994;2023-03-31T04:55:50;84876.22;;;28.63;26.57
73974;BME280;62336;-26.094;27.994;2023-03-31T04:58:16;84831.61;;;29.20;26.27
73974;BME280;62336;-26.094;27.994;2023-03-31T05:00:41;84787.77;;;29.80;25.51
73974;BME280;62336;-26.094;27.994;2023-03-31T05:03:07;84777.20;;;29.77;25.17
73974;BME280;62336;-26.094;27.994;2023-03-31T05:05:32;84791.77;;;29.63;25.35
73974;BME280;62336;-26.094;27.994;2023-03-31T05:07:58;84843.85;;;28.80;26.20
73974;BME280;62336;-26.094;27.994;2023-03-31T05:10:23;84881.65;;;28.92;26.44
73974;BME280;62336;-26.094;27.994;2023-03-31T05:12:49;84905.83;;;29.36;26.07
73974;BME280;62336;-26.094;27.994;2023-03-31T05:15:14;84917.44;;;29.58;25.83
73974;BME280;62336;-26.094;27.994;2023-03-31T05:17:40;84915.84;;;29.06;26.38
73974;BME280;62336;-26.094;27.994;2023-03-31T05:20:06;84907.68;;;28.92;26.15
73974;BME280;62336;-26.094;27.994;2023-03-31T05:22:34;84901.21;;;28.30;26.42
73974;BME280;62336;-26.094;27.994;2023-03-31T05:24:56;84904.47;;;28.72;26.34
73974;BME280;62336;-26.094;27.994;2023-03-31T05:27:21;84910.11;;;28.91;26.21
73974;BME280;62336;-26.094;27.994;2023-03-31T05:29:46;84913.23;;;29.32;25.89
73974;BME280;62336;-26.094;27.994;2023-03-31T05:32:12;84911.19;;;29.35;25.72
73974;BME280;62336;-26.094;27.994;2023-03-31T05:34:37;84896.92;;;29.34;25.63
73974;BME280;62336;-26.094;27.994;2023-03-31T05:37:03;84890.55;;;29.36;25.37
73974;BME280;62336;-26.094;27.994;2023-03-31T05:39:29;84893.60;;;29.21;25.42
73974;BME280;62336;-26.094;27.994;2023-03-31T05:41:55;84900.64;;;29.89;24.89
73974;BME280;62336;-26.094;27.994;2023-03-31T05:44:20;84906.96;;;29.36;25.24
73974;BME280;62336;-26.094;27.994;2023-03-31T05:46:45;84911.60;;;29.71;24.95
73974;BME280;62336;-26.094;27.994;2023-03-31T05:49:11;84916.42;;;29.47;25.00
73974;BME280;62336;-26.094;27.994;2023-03-31T05:51:36;84915.26;;;30.01;24.78
73974;BME280;62336;-26.094;27.994;2023-03-31T05:54:01;84905.19;;;30.27;24.78
73974;BME280;62336;-26.094;27.994;2023-03-31T05:56:27;84899.39;;;29.94;24.58
73974;BME280;62336;-26.094;27.994;2023-03-31T05:58:52;84893.22;;;30.04;24.37
73974;BME280;62336;-26.094;27.994;2023-03-31T06:01:18;84893.80;;;29.65;25.07
73974;BME280;62336;-26.094;27.994;2023-03-31T06:03:43;84899.99;;;29.56;25.22
73974;BME280;62336;-26.094;27.994;2023-03-31T06:06:10;84916.03;;;29.57;25.29
73974;BME280;62336;-26.094;27.994;2023-03-31T06:08:35;84931.43;;;29.73;24.97
73974;BME280;62336;-26.094;27.994;2023-03-31T06:11:04;84939.64;;;30.26;24.39
73974;BME280;62336;-26.094;27.994;2023-03-31T06:13:26;84951.82;;;29.87;24.78
73974;BME280;62336;-26.094;27.994;2023-03-31T06:15:54;84962.67;;;29.88;24.73
73974;BME280;62336;-26.094;27.994;2023-03-31T06:18:17;84965.00;;;29.65;24.98
73974;BME280;62336;-26.094;27.994;2023-03-31T06:20:43;84967.45;;;29.68;24.85
73974;BME280;62336;-26.094;27.994;2023-03-31T06:23:08;84975.81;;;29.30;24.82
73974;BME280;62336;-26.094;27.994;2023-03-31T06:25:37;84982.46;;;29.22;24.88
73974;BME280;62336;-26.094;27.994;2023-03-31T06:28:00;84987.22;;;29.83;24.63
73974;BME280;62336;-26.094;27.994;2023-03-31T06:30:25;84983.90;;;29.08;24.96
73974;BME280;62336;-26.094;27.994;2023-03-31T06:32:50;84986.48;;;29.96;24.56
73974;BME280;62336;-26.094;27.994;2023-03-31T06:35:16;84991.30;;;29.87;24.33
73974;BME280;62336;-26.094;27.994;2023-03-31T06:37:41;85006.39;;;29.70;24.57
73974;BME280;62336;-26.094;27.994;2023-03-31T06:40:08;85011.36;;;29.22;24.63
73974;BME280;62336;-26.094;27.994;2023-03-31T06:42:31;85015.60;;;29.94;24.44
73974;BME280;62336;-26.094;27.994;2023-03-31T06:44:57;85016.22;;;30.14;24.27
73974;BME280;62336;-26.094;27.994;2023-03-31T06:47:22;85016.36;;;29.62;24.18
73974;BME280;62336;-26.094;27.994;2023-03-31T06:49:48;85015.55;;;29.92;24.48
73974;BME280;62336;-26.094;27.994;2023-03-31T06:52:13;85018.98;;;29.29;24.63
73974;BME280;62336;-26.094;27.994;2023-03-31T06:54:40;85022.92;;;29.85;24.30
73974;BME280;62336;-26.094;27.994;2023-03-31T06:57:05;85026.67;;;30.21;23.98
73974;BME280;62336;-26.094;27.994;2023-03-31T06:59:30;85025.33;;;30.06;23.98
73974;BME280;62336;-26.094;27.994;2023-03-31T07:01:55;85033.91;;;29.89;24.09
73974;BME280;62336;-26.094;27.994;2023-03-31T07:04:21;85031.21;;;29.47;24.33
73974;BME280;62336;-26.094;27.994;2023-03-31T07:06:47;85034.63;;;30.06;24.00
73974;BME280;62336;-26.094;27.994;2023-03-31T07:09:12;85036.31;;;29.90;24.06
73974;BME280;62336;-26.094;27.994;2023-03-31T07:11:38;85038.76;;;30.11;24.15
73974;BME280;62336;-26.094;27.994;2023-03-31T07:14:04;85039.30;;;30.33;23.85
73974;BME280;62336;-26.094;27.994;2023-03-31T07:16:29;85043.41;;;30.02;23.78
73974;BME280;62336;-26.094;27.994;2023-03-31T07:18:55;85045.67;;;29.92;24.06
73974;BME280;62336;-26.094;27.994;2023-03-31T07:21:21;85039.41;;;29.88;24.04
73974;BME280;62336;-26.094;27.994;2023-03-31T07:23:46;85040.33;;;29.92;23.78
73974;BME280;62336;-26.094;27.994;2023-03-31T07:26:11;85046.38;;;29.83;24.01
73974;BME280;62336;-26.094;27.994;2023-03-31T07:28:37;85053.54;;;29.64;24.11
73974;BME280;62336;-26.094;27.994;2023-03-31T07:33:29;85060.93;;;29.96;23.99
73974;BME280;62336;-26.094;27.994;2023-03-31T07:35:54;85063.76;;;29.98;23.23
73974;BME280;62336;-26.094;27.994;2023-03-31T07:38:19;85065.28;;;29.91;23.47
73974;BME280;62336;-26.094;27.994;2023-03-31T07:40:45;85072.03;;;30.22;23.56
73974;BME280;62336;-26.094;27.994;2023-03-31T07:43:12;85076.90;;;30.45;23.11
73974;BME280;62336;-26.094;27.994;2023-03-31T07:45:38;85075.09;;;30.40;23.02
73974;BME280;62336;-26.094;27.994;2023-03-31T07:48:03;85073.98;;;29.88;22.99
73974;BME280;62336;-26.094;27.994;2023-03-31T07:50:29;85073.46;;;29.75;23.20
73974;BME280;62336;-26.094;27.994;2023-03-31T07:52:55;85075.38;;;29.56;23.44
73974;BME280;62336;-26.094;27.994;2023-03-31T07:55:20;85084.09;;;29.36;23.10
73974;BME280;62336;-26.094;27.994;2023-03-31T07:57:46;85094.06;;;29.15;23.09
73974;BME280;62336;-26.094;27.994;2023-03-31T08:00:13;85091.35;;;29.24;22.90
73974;BME280;62336;-26.094;27.994;2023-03-31T08:02:37;85089.82;;;29.91;22.08
73974;BME280;62336;-26.094;27.994;2023-03-31T08:05:03;85088.03;;;29.93;22.10
73974;BME280;62336;-26.094;27.994;2023-03-31T08:07:28;85086.04;;;29.85;21.67
73974;BME280;62336;-26.094;27.994;2023-03-31T08:09:54;85086.94;;;30.22;21.71
73974;BME280;62336;-26.094;27.994;2023-03-31T08:12:20;85082.90;;;30.05;21.67
73974;BME280;62336;-26.094;27.994;2023-03-31T08:14:45;85090.46;;;30.10;21.62
73974;BME280;62336;-26.094;27.994;2023-03-31T08:17:11;85090.68;;;30.04;21.41
73974;BME280;62336;-26.094;27.994;2023-03-31T08:19:37;85096.49;;;30.26;21.27
73974;BME280;62336;-26.094;27.994;2023-03-31T08:22:03;85101.49;;;30.47;21.63
73974;BME280;62336;-26.094;27.994;2023-03-31T08:24:29;85111.37;;;30.35;21.42
73974;BME280;62336;-26.094;27.994;2023-03-31T08:26:54;85113.83;;;30.35;21.21
73974;BME280;62336;-26.094;27.994;2023-03-31T08:29:20;85115.43;;;30.21;21.29
73974;BME280;62336;-26.094;27.994;2023-03-31T08:31:46;85118.06;;;29.98;21.71
73974;BME280;62336;-26.094;27.994;2023-03-31T08:34:12;85125.44;;;29.97;21.76
73974;BME280;62336;-26.094;27.994;2023-03-31T08:36:37;85124.48;;;29.66;21.52
73974;BME280;62336;-26.094;27.994;2023-03-31T08:39:03;85118.39;;;29.84;21.25
73974;BME280;62336;-26.094;27.994;2023-03-31T08:41:38;85115.58;;;30.32;21.25
73974;BME280;62336;-26.094;27.994;2023-03-31T08:43:57;85117.91;;;30.17;21.39
73974;BME280;62336;-26.094;27.994;2023-03-31T08:46:21;85127.40;;;30.06;21.28
73974;BME280;62336;-26.094;27.994;2023-03-31T08:48:49;85123.87;;;29.65;21.77
73974;BME280;62336;-26.094;27.994;2023-03-31T08:51:16;85114.10;;;30.28;20.81
73974;BME280;62336;-26.094;27.994;2023-03-31T08:53:41;85108.89;;;30.00;21.53
73974;BME280;62336;-26.094;27.994;2023-03-31T08:56:08;85108.40;;;30.22;21.22
73974;BME280;62336;-26.094;27.994;2023-03-31T08:58:35;85112.47;;;30.16;21.03
73974;BME280;62336;-26.094;27.994;2023-03-31T09:01:01;85110.71;;;29.68;21.39
73974;BME280;62336;-26.094;27.994;2023-03-31T09:03:27;85112.77;;;29.99;20.96
73974;BME280;62336;-26.094;27.994;2023-03-31T09:05:52;85108.10;;;29.74;21.55
73974;BME280;62336;-26.094;27.994;2023-03-31T09:08:21;85108.16;;;29.72;21.33
73974;BME280;62336;-26.094;27.994;2023-03-31T09:10:45;85104.24;;;29.73;21.46
73974;BME280;62336;-26.094;27.994;2023-03-31T09:13:16;85108.82;;;29.81;21.00
73974;BME280;62336;-26.094;27.994;2023-03-31T09:15:35;85106.34;;;29.76;21.22
73974;BME280;62336;-26.094;27.994;2023-03-31T09:17:59;85107.94;;;29.68;21.17
73974;BME280;62336;-26.094;27.994;2023-03-31T09:20:27;85111.37;;;29.46;21.06
73974;BME280;62336;-26.094;27.994;2023-03-31T09:22:49;85109.24;;;29.54;21.07
73974;BME280;62336;-26.094;27.994;2023-03-31T09:25:16;85103.56;;;29.77;21.05
73974;BME280;62336;-26.094;27.994;2023-03-31T09:27:40;85099.56;;;30.05;20.91
73974;BME280;62336;-26.094;27.994;2023-03-31T09:30:10;85096.08;;;30.19;20.72
73974;BME280;62336;-26.094;27.994;2023-03-31T09:32:31;85093.93;;;30.56;20.21
73974;BME280;62336;-26.094;27.994;2023-03-31T09:35:01;85095.97;;;29.99;20.40
73974;BME280;62336;-26.094;27.994;2023-03-31T09:37:23;85091.13;;;30.03;20.85
73974;BME280;62336;-26.094;27.994;2023-03-31T09:39:48;85086.65;;;30.18;20.77
73974;BME280;62336;-26.094;27.994;2023-03-31T09:42:14;85083.73;;;30.28;20.85
73974;BME280;62336;-26.094;27.994;2023-03-31T09:44:41;85081.57;;;30.53;20.48
73974;BME280;62336;-26.094;27.994;2023-03-31T09:47:06;85078.08;;;30.25;20.53
73974;BME280;62336;-26.094;27.994;2023-03-31T09:49:34;85081.78;;;30.22;20.95
73974;BME280;62336;-26.094;27.994;2023-03-31T09:52:02;85080.48;;;30.24;21.31
73974;BME280;62336;-26.094;27.994;2023-03-31T09:54:26;85079.68;;;30.49;20.44
73974;BME280;62336;-26.094;27.994;2023-03-31T09:56:49;85082.96;;;29.52;21.24
73974;BME280;62336;-26.094;27.994;2023-03-31T09:59:15;85089.66;;;29.46;21.54
73974;BME280;62336;-26.094;27.994;2023-03-31T10:01:40;85093.80;;;30.36;21.19
73974;BME280;62336;-26.094;27.994;2023-03-31T10:04:08;85097.01;;;29.80;21.17
73974;BME280;62336;-26.094;27.994;2023-03-31T10:06:31;85101.15;;;29.71;21.22
73974;BME280;62336;-26.094;27.994;2023-03-31T10:09:00;85104.17;;;30.44;20.89
73974;BME280;62336;-26.094;27.994;2023-03-31T10:11:23;85112.33;;;29.15;22.02
73974;BME280;62336;-26.094;27.994;2023-03-31T10:13:52;85115.27;;;29.22;21.86
73974;BME280;62336;-26.094;27.994;2023-03-31T10:16:21;85116.51;;;29.35;22.05
73974;BME280;62336;-26.094;27.994;2023-03-31T10:18:42;85123.31;;;28.96;22.12
73974;BME280;62336;-26.094;27.994;2023-03-31T10:21:21;85119.50;;;29.21;21.69
73974;BME280;62336;-26.094;27.994;2023-03-31T10:23:34;85120.38;;;29.78;21.72
73974;BME280;62336;-26.094;27.994;2023-03-31T10:25:59;85120.26;;;29.59;21.72
73974;BME280;62336;-26.094;27.994;2023-03-31T10:28:24;85117.48;;;29.81;21.80
73974;BME280;62336;-26.094;27.994;2023-03-31T10:30:51;85118.90;;;29.60;21.84
73974;BME280;62336;-26.094;27.994;2023-03-31T10:33:17;85114.87;;;29.33;21.84
73974;BME280;62336;-26.094;27.994;2023-03-31T10:35:41;85111.18;;;30.54;21.10
73974;BME280;62336;-26.094;27.994;2023-03-31T10:38:11;85110.81;;;29.98;21.18
73974;BME280;62336;-26.094;27.994;2023-03-31T10:40:33;85107.93;;;29.10;22.02
73974;BME280;62336;-26.094;27.994;2023-03-31T10:43:02;85098.05;;;29.26;22.13
73974;BME280;62336;-26.094;27.994;2023-03-31T10:45:25;85106.26;;;28.90;22.14
73974;BME280;62336;-26.094;27.994;2023-03-31T10:47:53;85109.33;;;29.00;22.38
73974;BME280;62336;-26.094;27.994;2023-03-31T10:50:16;85100.84;;;29.47;22.19
73974;BME280;62336;-26.094;27.994;2023-03-31T10:52:46;85090.51;;;29.69;21.68
73974;BME280;62336;-26.094;27.994;2023-03-31T10:55:12;85085.21;;;29.26;22.02
73974;BME280;62336;-26.094;27.994;2023-03-31T10:57:40;85089.21;;;29.62;21.91
73974;BME280;62336;-26.094;27.994;2023-03-31T11:00:11;85088.84;;;29.40;22.33
73974;BME280;62336;-26.094;27.994;2023-03-31T11:05:00;85082.27;;;29.03;22.66
73974;BME280;62336;-26.094;27.994;2023-03-31T11:07:30;85084.00;;;29.38;22.72
73974;BME280;62336;-26.094;27.994;2023-03-31T11:09:51;85082.73;;;29.38;22.55
73974;BME280;62336;-26.094;27.994;2023-03-31T11:12:16;85080.81;;;29.44;22.26
73974;BME280;62336;-26.094;27.994;2023-03-31T11:14:41;85075.60;;;29.61;22.65
73974;BME280;62336;-26.094;27.994;2023-03-31T11:17:04;85072.28;;;30.00;21.68
73974;BME280;62336;-26.094;27.994;2023-03-31T11:19:36;85071.13;;;29.47;22.15
73974;BME280;62336;-26.094;27.994;2023-03-31T11:21:57;85066.41;;;30.38;21.53
73974;BME280;62336;-26.094;27.994;2023-03-31T11:24:25;85065.63;;;29.90;21.69
73974;BME280;62336;-26.094;27.994;2023-03-31T11:26:47;85065.70;;;30.39;21.63
73974;BME280;62336;-26.094;27.994;2023-03-31T11:29:18;85059.80;;;30.09;21.28
73974;BME280;62336;-26.094;27.994;2023-03-31T11:31:42;85057.48;;;30.31;21.57
73974;BME280;62336;-26.094;27.994;2023-03-31T11:34:10;85057.13;;;30.13;21.59
73974;BME280;62336;-26.094;27.994;2023-03-31T11:36:36;85057.19;;;29.80;22.16
73974;BME280;62336;-26.094;27.994;2023-03-31T11:39:01;85050.80;;;30.11;21.54
73974;BME280;62336;-26.094;27.994;2023-03-31T11:41:19;85040.26;;;30.15;21.52
73974;BME280;62336;-26.094;27.994;2023-03-31T11:43:44;85029.82;;;29.97;21.58
73974;BME280;62336;-26.094;27.994;2023-03-31T11:46:12;85029.71;;;29.52;22.01
73974;BME280;62336;-26.094;27.994;2023-03-31T11:48:45;85026.21;;;29.09;22.42
73974;BME280;62336;-26.094;27.994;2023-03-31T11:51:03;85010.41;;;29.72;22.11
73974;BME280;62336;-26.094;27.994;2023-03-31T11:53:32;85009.75;;;29.99;21.84
73974;BME280;62336;-26.094;27.994;2023-03-31T11:55:54;85014.07;;;29.32;22.70
73974;BME280;62336;-26.094;27.994;2023-03-31T11:58:21;85015.90;;;29.95;22.22
73974;BME280;62336;-26.094;27.994;2023-03-31T12:00:46;85012.72;;;29.83;21.80
73974;BME280;62336;-26.094;27.994;2023-03-31T12:03:18;85006.42;;;30.37;21.56
73974;BME280;62336;-26.094;27.994;2023-03-31T12:05:40;85008.92;;;29.99;21.83
73974;BME280;62336;-26.094;27.994;2023-03-31T12:08:06;85011.84;;;30.24;21.83
73974;BME280;62336;-26.094;27.994;2023-03-31T12:10:32;85018.75;;;30.01;22.09
73974;BME280;62336;-26.094;27.994;2023-03-31T12:12:56;85016.01;;;30.17;21.69
73974;BME280;62336;-26.094;27.994;2023-03-31T12:15:22;85021.35;;;30.26;21.61
73974;BME280;62336;-26.094;27.994;2023-03-31T12:17:48;85025.46;;;29.98;21.95
73974;BME280;62336;-26.094;27.994;2023-03-31T12:20:24;85034.56;;;29.46;22.31
73974;BME280;62336;-26.094;27.994;2023-03-31T12:22:38;85039.49;;;29.43;22.42
73974;BME280;62336;-26.094;27.994;2023-03-31T12:25:01;85040.73;;;30.27;21.52
73974;BME280;62336;-26.094;27.994;2023-03-31T12:27:37;85036.51;;;29.96;21.67
73974;BME280;62336;-26.094;27.994;2023-03-31T12:29:56;85037.50;;;30.05;22.01
73974;BME280;62336;-26.094;27.994;2023-03-31T12:32:21;85042.37;;;29.97;21.96
73974;BME280;62336;-26.094;27.994;2023-03-31T12:34:50;85041.74;;;30.07;21.91
73974;BME280;62336;-26.094;27.994;2023-03-31T12:39:45;85041.15;;;29.38;22.06
73974;BME280;62336;-26.094;27.994;2023-03-31T12:42:30;85038.12;;;29.30;22.20
73974;BME280;62336;-26.094;27.994;2023-03-31T12:44:36;85042.37;;;29.88;21.73
73974;BME280;62336;-26.094;27.994;2023-03-31T12:49:33;85052.85;;;30.14;21.87
73974;BME280;62336;-26.094;27.994;2023-03-31T12:54:21;85035.98;;;29.60;22.00
73974;BME280;62336;-26.094;27.994;2023-03-31T13:01:27;85007.31;;;30.84;21.79